Time;durP1;ratioP1;P1;durP2;ratioP2;P2;SDS_P1;SDS_P2;PMS_P1;PMS_P2;Temp;Humidity;BMP_temperature;BMP_pressure;BME280_temperature;BME280_humidity;BME280_pressure;Samples;Min_cycle;Max_cycle;Signal;HPM_P1;HPM_P2
2021/09/28 00:01:08;;;;;;;0.40;0.30;;;;;;;15.40;100.00;100895.91;5025817;28;20858;-59
2021/09/28 00:03:35;;;;;;;0.97;0.97;;;;;;;15.43;100.00;100893.09;5020528;28;20451;-59
2021/09/28 00:06:02;;;;;;;0.30;0.20;;;;;;;15.38;100.00;100901.34;5021975;28;20506;-59
2021/09/28 00:08:28;;;;;;;0.40;0.20;;;;;;;15.37;100.00;100902.25;5027494;28;20884;-59
2021/09/28 00:10:55;;;;;;;0.40;0.20;;;;;;;15.14;100.00;100912.09;5024749;28;20606;-59
2021/09/28 00:13:21;;;;;;;0.40;0.20;;;;;;;15.20;100.00;100909.16;5020712;28;20557;-59
2021/09/28 00:15:48;;;;;;;0.40;0.20;;;;;;;15.05;100.00;100914.16;5021903;28;20534;-59
2021/09/28 00:18:15;;;;;;;0.40;0.20;;;;;;;15.04;100.00;100917.78;5026314;28;20448;-59
2021/09/28 00:20:41;;;;;;;0.40;0.20;;;;;;;14.86;100.00;100914.91;5026111;28;20447;-59
2021/09/28 00:23:16;;;;;;;0.40;0.20;;;;;;;14.79;100.00;100923.16;5020271;28;20448;-59
2021/09/28 00:25:42;;;;;;;0.30;0.20;;;;;;;14.65;100.00;100925.44;5020560;28;20464;-59
2021/09/28 00:28:09;;;;;;;0.37;0.20;;;;;;;14.59;100.00;100920.31;5026930;28;20945;-59
2021/09/28 00:30:36;;;;;;;0.40;0.20;;;;;;;14.66;100.00;100926.31;5026495;28;20868;-58
2021/09/28 00:33:02;;;;;;;0.40;0.20;;;;;;;14.67;100.00;100928.09;5021055;28;20518;-55
2021/09/28 00:35:29;;;;;;;0.40;0.20;;;;;;;14.50;100.00;100936.69;5020119;28;20527;-55
2021/09/28 00:37:56;;;;;;;0.40;0.20;;;;;;;14.42;100.00;100942.28;5026180;28;20453;-55
2021/09/28 00:40:23;;;;;;;0.40;0.20;;;;;;;14.28;100.00;100936.50;5014302;28;20449;-55
2021/09/28 00:42:50;;;;;;;0.40;0.20;;;;;;;14.32;100.00;100943.50;5025568;28;20961;-55
2021/09/28 00:45:16;;;;;;;0.40;0.20;;;;;;;14.32;100.00;100943.50;5025750;28;20471;-55
2021/09/28 00:47:43;;;;;;;0.40;0.20;;;;;;;14.22;100.00;100934.03;5021243;28;20498;-55
2021/09/28 00:50:10;;;;;;;0.40;0.20;;;;;;;14.22;100.00;100939.38;5019456;28;20456;-56
2021/09/28 00:52:37;;;;;;;0.40;0.20;;;;;;;14.21;100.00;100940.31;5033163;28;20518;-55
2021/09/28 00:55:04;;;;;;;0.40;0.20;;;;;;;14.27;100.00;100944.59;5019762;28;20492;-55
2021/09/28 00:57:32;;;;;;;0.40;0.20;;;;;;;14.22;100.00;100942.91;5032036;28;20447;-55
2021/09/28 01:00:00;;;;;;;0.40;0.20;;;;;;;14.09;100.00;100944.25;5019669;28;20452;-55
2021/09/28 01:02:26;;;;;;;0.40;0.20;;;;;;;14.11;100.00;100953.09;5023371;28;20942;-55
2021/09/28 01:04:53;;;;;;;0.40;0.20;;;;;;;14.16;100.00;100950.28;5025719;28;20457;-55
2021/09/28 01:07:20;;;;;;;0.40;0.20;;;;;;;14.24;100.00;100954.44;5022640;28;20519;-55
2021/09/28 01:09:46;;;;;;;0.40;0.30;;;;;;;14.30;100.00;100952.50;5019467;28;20454;-54
2021/09/28 01:12:13;;;;;;;0.40;0.20;;;;;;;14.27;100.00;100957.97;5023098;28;20457;-55
2021/09/28 01:14:42;;;;;;;0.40;0.20;;;;;;;14.19;100.00;100947.50;5029309;28;20549;-55
2021/09/28 01:17:14;;;;;;;0.40;0.20;;;;;;;14.22;100.00;100958.09;5022285;28;20540;-55
2021/09/28 01:19:41;;;;;;;0.40;0.20;;;;;;;14.22;100.00;100958.97;5026338;28;20445;-55
2021/09/28 01:22:08;;;;;;;0.40;0.20;;;;;;;14.20;100.00;100968.84;5023992;28;20502;-56
2021/09/28 01:24:35;;;;;;;0.40;0.20;;;;;;;14.16;100.00;100963.66;5019054;28;20443;-56
2021/09/28 01:27:02;;;;;;;0.40;0.30;;;;;;;14.13;100.00;100963.75;5021340;28;20527;-55
2021/09/28 01:29:30;;;;;;;0.40;0.20;;;;;;;14.21;100.00;100965.25;5025969;28;20552;-55
2021/09/28 01:31:56;;;;;;;0.40;0.20;;;;;;;13.96;100.00;100972.28;5016605;28;20448;-55
2021/09/28 01:34:23;;;;;;;0.40;0.20;;;;;;;13.93;100.00;100967.06;5025762;28;20489;-55
2021/09/28 01:36:50;;;;;;;0.40;0.20;;;;;;;14.02;100.00;100968.56;5024458;28;20530;-55
2021/09/28 01:39:19;;;;;;;0.30;0.20;;;;;;;13.93;100.00;100967.06;5019004;28;20487;-55
2021/09/28 01:41:47;;;;;;;0.40;0.20;;;;;;;14.06;100.00;100972.88;5019556;28;20476;-55
2021/09/28 01:44:17;;;;;;;0.40;0.20;;;;;;;14.02;100.00;100976.59;5026108;28;20448;-55
2021/09/28 01:46:45;;;;;;;0.40;0.20;;;;;;;14.00;100.00;100973.97;5025372;28;20472;-55
2021/09/28 01:49:14;;;;;;;0.30;0.20;;;;;;;13.77;100.00;100976.47;5019625;28;20887;-55
2021/09/28 01:51:42;;;;;;;0.40;0.20;;;;;;;13.79;100.00;100963.94;5026391;28;20491;-56
2021/09/28 01:54:09;;;;;;;0.73;0.67;;;;;;;13.87;100.00;100972.59;5024305;28;20947;-55
2021/09/28 01:56:37;;;;;;;0.40;0.20;;;;;;;13.88;100.00;100972.56;5025736;28;20471;-55
2021/09/28 01:59:05;;;;;;;0.40;0.20;;;;;;;13.87;100.00;100972.59;5023923;28;20480;-55
2021/09/28 02:01:32;;;;;;;0.40;0.20;;;;;;;13.98;100.00;100975.81;5022223;28;20504;-55
2021/09/28 02:04:00;;;;;;;0.40;0.20;;;;;;;13.74;100.00;100973.91;5001711;28;20583;-55
2021/09/28 02:06:27;;;;;;;0.40;0.20;;;;;;;13.83;100.00;100981.63;5025128;28;21068;-55
2021/09/28 02:08:54;;;;;;;0.40;0.20;;;;;;;13.80;100.00;100981.72;5021942;28;20502;-55
2021/09/28 02:11:21;;;;;;;7.93;1.70;;;;;;;13.91;100.00;100982.25;5018568;28;20955;-55
2021/09/28 02:13:49;;;;;;;0.40;0.20;;;;;;;13.79;100.00;100975.50;5022074;28;20523;-54
2021/09/28 02:16:18;;;;;;;0.30;0.20;;;;;;;13.87;100.00;100978.81;5028450;28;20541;-55
2021/09/28 02:18:45;;;;;;;0.30;0.20;;;;;;;13.83;100.00;100979.81;5026764;28;20957;-55
2021/09/28 02:21:11;;;;;;;0.40;0.20;;;;;;;13.80;100.00;100995.06;5022494;28;20452;-55
2021/09/28 02:23:38;;;;;;;0.30;0.20;;;;;;;13.70;100.00;100996.28;5025112;28;20526;-55
2021/09/28 02:26:05;;;;;;;0.40;0.20;;;;;;;13.65;100.00;100991.06;5029059;28;20526;-55
2021/09/28 02:28:31;;;;;;;0.30;0.20;;;;;;;13.64;100.00;100989.31;5027053;28;20495;-55
2021/09/28 02:30:58;;;;;;;0.30;0.20;;;;;;;13.23;100.00;100978.06;5020832;28;20469;-55
2021/09/28 02:33:25;;;;;;;0.40;0.30;;;;;;;13.16;100.00;100986.25;5027039;28;20451;-55
2021/09/28 02:35:52;;;;;;;0.40;0.20;;;;;;;13.11;100.00;100986.38;5022323;28;20498;-55
2021/09/28 02:38:19;;;;;;;0.40;0.20;;;;;;;13.23;100.00;100978.06;5024309;28;20452;-55
2021/09/28 02:40:45;;;;;;;0.40;0.20;;;;;;;13.12;100.00;100973.91;5029149;28;20456;-55
2021/09/28 02:43:13;;;;;;;0.40;0.20;;;;;;;13.22;100.00;100975.44;5027157;28;20448;-55
2021/09/28 02:45:40;;;;;;;0.40;0.20;;;;;;;13.09;100.00;100977.53;5021907;28;20525;-55
2021/09/28 02:48:07;;;;;;;0.40;0.20;;;;;;;13.07;100.00;100979.38;5023203;28;20518;-55
2021/09/28 02:50:34;;;;;;;0.40;0.20;;;;;;;13.15;100.00;100977.34;5028082;28;20443;-55
2021/09/28 02:53:02;;;;;;;0.30;0.20;;;;;;;13.16;100.00;100989.81;5035409;28;20455;-55
2021/09/28 02:55:29;;;;;;;0.40;0.20;;;;;;;13.14;100.00;100991.63;5021714;28;20491;-55
2021/09/28 02:57:56;;;;;;;0.30;0.20;;;;;;;13.09;100.00;100996.22;5034039;28;20478;-55
2021/09/28 03:00:22;;;;;;;0.40;0.20;;;;;;;13.13;100.00;101005.88;5021572;28;20543;-55
2021/09/28 03:02:49;;;;;;;0.30;0.20;;;;;;;13.01;100.00;101004.41;5021683;28;20878;-55
2021/09/28 03:05:16;;;;;;;0.40;0.20;;;;;;;12.87;100.00;101003.03;5028311;28;20468;-55
2021/09/28 03:07:42;;;;;;;0.30;0.20;;;;;;;12.95;100.00;101006.41;5027898;28;20509;-55
2021/09/28 03:10:10;;;;;;;0.40;0.20;;;;;;;12.92;100.00;101004.69;5021388;28;20825;-56
2021/09/28 03:12:36;;;;;;;0.30;0.20;;;;;;;12.78;100.00;101012.19;5022043;28;20937;-55
2021/09/28 03:15:04;;;;;;;0.30;0.20;;;;;;;12.81;100.00;101016.56;5027810;28;21128;-55
2021/09/28 03:17:31;;;;;;;0.30;0.20;;;;;;;12.77;100.00;101022.91;5028260;28;20991;-55
2021/09/28 03:19:57;;;;;;;0.30;0.20;;;;;;;12.68;100.00;101016.88;5008551;28;20482;-55
2021/09/28 03:22:24;;;;;;;0.30;0.20;;;;;;;12.59;100.00;101019.75;5020350;28;20459;-55
2021/09/28 03:24:51;;;;;;;0.30;0.20;;;;;;;12.76;100.00;101019.34;5027873;28;20927;-55
2021/09/28 03:27:17;;;;;;;0.30;0.20;;;;;;;12.58;100.00;101017.13;5027345;28;20882;-55
2021/09/28 03:29:44;;;;;;;0.30;0.20;;;;;;;12.57;100.00;101016.25;5021446;28;20949;-55
2021/09/28 03:32:10;;;;;;;0.40;0.20;;;;;;;12.50;100.00;101019.13;5021429;28;20456;-55
2021/09/28 03:34:37;;;;;;;0.30;0.20;;;;;;;12.61;100.00;101028.63;5027812;28;20492;-55
2021/09/28 03:37:04;;;;;;;0.40;0.20;;;;;;;12.48;100.00;101028.97;5027959;28;20475;-55
2021/09/28 03:39:32;;;;;;;42.30;1.80;;;;;;;12.31;100.00;101032.88;5021468;28;20506;-54
2021/09/28 03:41:59;;;;;;;0.40;0.20;;;;;;;12.25;100.00;101025.06;5020646;28;20479;-54
2021/09/28 03:44:25;;;;;;;0.30;0.20;;;;;;;12.18;100.00;101025.22;5027461;28;20448;-54
2021/09/28 03:46:52;;;;;;;0.30;0.20;;;;;;;12.15;100.00;101021.72;5027849;28;20472;-54
2021/09/28 03:49:18;;;;;;;0.30;0.20;;;;;;;12.25;100.00;101024.19;5020959;28;20452;-54
2021/09/28 03:51:45;;;;;;;0.30;0.20;;;;;;;12.20;100.00;101023.38;5029194;28;20483;-54
2021/09/28 03:54:12;;;;;;;0.30;0.20;;;;;;;12.26;100.00;101020.59;5025782;28;20491;-54
2021/09/28 03:56:38;;;;;;;0.30;0.20;;;;;;;12.22;100.00;101021.59;5026255;28;20519;-55
2021/09/28 03:59:05;;;;;;;0.30;0.20;;;;;;;12.12;100.00;101023.59;5021835;28;20502;-54
2021/09/28 04:01:32;;;;;;;0.30;0.20;;;;;;;12.02;100.00;101022.91;5028421;28;20510;-54
2021/09/28 04:03:59;;;;;;;0.30;0.20;;;;;;;12.01;100.00;101018.50;5021950;28;20451;-54
2021/09/28 04:06:26;;;;;;;0.30;0.20;;;;;;;12.08;100.00;101017.47;5020419;28;20551;-55
2021/09/28 04:08:52;;;;;;;0.33;0.20;;;;;;;12.01;100.00;101021.16;5024828;28;20841;-55
2021/09/28 04:11:19;;;;;;;0.30;0.20;;;;;;;12.02;100.00;101014.03;5017660;28;20460;-54
2021/09/28 04:13:47;;;;;;;0.40;0.20;;;;;;;12.04;100.00;101034.41;5024434;28;20453;-54
2021/09/28 04:16:16;;;;;;;0.30;0.20;;;;;;;11.97;100.00;101030.16;5026785;28;20895;-54
2021/09/28 04:18:45;;;;;;;0.30;0.30;;;;;;;11.84;100.00;101036.66;5024148;28;20452;-55
2021/09/28 04:21:13;;;;;;;0.30;0.20;;;;;;;11.77;100.00;101043.84;5020217;28;20478;-55
2021/09/28 04:23:40;;;;;;;0.87;0.87;;;;;;;11.70;100.00;101038.69;5022655;28;20452;-55
2021/09/28 04:26:07;;;;;;;0.30;0.20;;;;;;;11.65;100.00;101037.91;5026907;28;20842;-54
2021/09/28 04:28:34;;;;;;;0.30;0.20;;;;;;;11.63;100.00;101051.25;5024747;28;20451;-55
2021/09/28 04:31:01;;;;;;;0.30;0.20;;;;;;;11.67;100.00;101050.31;5019713;28;20503;-55
2021/09/28 04:33:28;;;;;;;0.30;0.20;;;;;;;11.75;100.00;101051.00;5025287;28;20443;-55
2021/09/28 04:35:55;;;;;;;0.33;0.20;;;;;;;11.68;100.00;101053.84;5020071;28;20495;-55
2021/09/28 04:38:21;;;;;;;0.30;0.20;;;;;;;11.72;100.00;101050.19;5021175;28;20456;-54
2021/09/28 04:40:48;;;;;;;0.37;0.30;;;;;;;11.80;100.00;101053.63;5026792;28;20456;-54
2021/09/28 04:43:15;;;;;;;0.30;0.20;;;;;;;11.80;100.00;101058.94;5025256;28;20451;-54
2021/09/28 04:45:41;;;;;;;0.30;0.20;;;;;;;11.77;100.00;101064.28;5019897;28;20470;-54
2021/09/28 04:48:08;;;;;;;0.30;0.20;;;;;;;11.90;100.00;101057.81;5021084;28;20524;-54
2021/09/28 04:50:34;;;;;;;0.30;0.20;;;;;;;11.97;100.00;101063.91;5025980;28;20929;-54
2021/09/28 04:53:01;;;;;;;0.30;0.20;;;;;;;11.67;100.00;101063.63;5032814;28;20505;-55
2021/09/28 04:55:28;;;;;;;0.50;0.50;;;;;;;11.45;100.00;101062.28;5019899;28;20495;-55
2021/09/28 04:57:55;;;;;;;3.50;1.43;;;;;;;11.40;100.00;101059.72;5032762;28;20483;-55
2021/09/28 05:00:21;;;;;;;0.30;0.20;;;;;;;11.41;100.00;101063.25;5020224;28;20506;-55
2021/09/28 05:02:48;;;;;;;0.40;0.20;;;;;;;11.44;100.00;101066.72;5020449;28;20961;-54
2021/09/28 05:05:15;;;;;;;0.30;0.20;;;;;;;11.22;100.00;101082.22;5026190;28;20468;-55
2021/09/28 05:07:41;;;;;;;0.40;0.40;;;;;;;11.07;100.00;101086.94;5025415;28;20517;-55
2021/09/28 05:10:08;;;;;;;0.30;0.20;;;;;;;10.99;100.00;101081.78;5019620;28;20448;-55
2021/09/28 05:12:35;;;;;;;0.30;0.20;;;;;;;10.93;100.00;101079.22;5018709;28;20464;-54
2021/09/28 05:15:03;;;;;;;0.30;0.20;;;;;;;11.28;100.00;101081.25;5025828;28;20495;-54
2021/09/28 05:17:29;;;;;;;0.30;0.20;;;;;;;11.33;100.00;101078.50;5025955;28;20816;-55
2021/09/28 05:19:56;;;;;;;0.40;0.30;;;;;;;11.40;100.00;101073.03;5018969;28;20475;-54
2021/09/28 05:22:23;;;;;;;0.30;0.20;;;;;;;11.39;100.00;101079.25;5019544;28;20997;-55
2021/09/28 05:24:50;;;;;;;0.30;0.20;;;;;;;11.69;100.00;101071.56;5006292;28;20879;-54
2021/09/28 05:27:16;;;;;;;0.30;0.20;;;;;;;11.65;100.00;101070.75;5019487;28;20503;-55
2021/09/28 05:29:43;;;;;;;0.30;0.20;;;;;;;11.51;100.00;101067.47;5006562;28;20456;-54
2021/09/28 05:32:09;;;;;;;0.33;0.27;;;;;;;11.70;100.00;101060.00;5019103;28;20459;-54
2021/09/28 05:34:36;;;;;;;0.30;0.20;;;;;;;11.67;100.00;101066.28;5025327;28;20516;-54
2021/09/28 05:37:03;;;;;;;0.30;0.20;;;;;;;11.78;100.00;101069.56;5025636;28;20475;-54
2021/09/28 05:39:29;;;;;;;0.30;0.20;;;;;;;11.67;100.00;101068.06;5010899;28;20866;-54
2021/09/28 05:41:56;;;;;;;0.30;0.20;;;;;;;11.63;100.00;101067.22;5025620;28;20506;-54
2021/09/28 05:44:23;;;;;;;0.30;0.20;;;;;;;11.60;100.00;101080.63;5019895;28;20455;-55
2021/09/28 05:46:50;;;;;;;0.30;0.20;;;;;;;11.68;100.00;101078.69;5018876;28;20468;-54
2021/09/28 05:49:16;;;;;;;0.30;0.20;;;;;;;11.51;100.00;101079.03;5024761;28;20492;-58
2021/09/28 05:51:52;;;;;;;5.50;3.03;;;;;;;11.46;100.00;101083.53;5026729;28;20506;-58
2021/09/28 05:54:20;;;;;;;0.30;0.20;;;;;;;11.69;100.00;101087.56;5023312;28;20498;-58
2021/09/28 05:56:52;;;;;;;0.30;0.20;;;;;;;11.61;100.00;101082.38;5026373;28;20504;-58
2021/09/28 05:59:20;;;;;;;0.30;0.20;;;;;;;11.77;100.00;101085.59;5022215;28;20507;-58
2021/09/28 06:01:48;;;;;;;0.30;0.20;;;;;;;11.57;100.00;101083.34;5025428;28;20456;-58
2021/09/28 06:04:16;;;;;;;0.30;0.20;;;;;;;11.61;100.00;101086.81;5022633;28;20941;-58
2021/09/28 06:06:43;;;;;;;0.30;0.20;;;;;;;11.85;100.00;101083.69;5018722;28;20467;-58
2021/09/28 06:09:10;;;;;;;0.30;0.20;;;;;;;12.03;100.00;101085.94;5021590;28;20480;-58
2021/09/28 06:11:36;;;;;;;0.40;0.30;;;;;;;12.01;100.00;101081.56;5025197;28;20506;-58
2021/09/28 06:14:03;;;;;;;0.30;0.20;;;;;;;12.01;100.00;101082.44;5022775;28;20467;-58
2021/09/28 06:16:29;;;;;;;0.30;0.20;;;;;;;12.05;100.00;101078.78;5018172;28;21020;-58
2021/09/28 06:18:56;;;;;;;0.30;0.20;;;;;;;12.14;100.00;101081.25;5021231;28;20464;-57
2021/09/28 06:21:23;;;;;;;0.30;0.20;;;;;;;12.29;100.00;101079.16;5025175;28;20488;-58
2021/09/28 06:23:50;;;;;;;0.30;0.20;;;;;;;12.42;100.00;101086.84;5022895;28;20486;-58
2021/09/28 06:26:16;;;;;;;0.30;0.20;;;;;;;12.64;100.00;101079.22;5018401;28;20891;-58
2021/09/28 06:28:43;;;;;;;0.30;0.20;;;;;;;12.67;100.00;101080.94;5020839;28;20456;-58
2021/09/28 06:31:09;;;;;;;1.50;0.50;;;;;;;12.77;100.00;101084.25;5025058;28;20483;-58
2021/09/28 06:33:36;;;;;;;0.40;0.37;;;;;;;12.79;100.00;101082.44;5024108;28;20444;-58
2021/09/28 06:36:03;;;;;;;0.30;0.20;;;;;;;12.77;100.00;101082.47;5018110;28;20577;-58
2021/09/28 06:38:30;;;;;;;0.30;0.20;;;;;;;12.73;100.00;101080.75;5020625;28;20453;-58
2021/09/28 06:40:58;;;;;;;0.30;0.30;;;;;;;12.86;100.00;101078.66;5025196;28;20882;-57
2021/09/28 06:43:25;;;;;;;0.30;0.20;;;;;;;12.93;100.00;101085.63;5023658;28;20868;-57
2021/09/28 06:45:52;;;;;;;0.30;0.20;;;;;;;12.91;100.00;101084.78;5018311;28;20463;-58
2021/09/28 06:48:19;;;;;;;0.30;0.20;;;;;;;12.94;100.00;101082.91;5020151;28;20821;-58
2021/09/28 06:50:46;;;;;;;0.30;0.20;;;;;;;13.14;100.00;101077.03;5024421;28;20443;-58
2021/09/28 06:53:13;;;;;;;0.30;0.20;;;;;;;13.37;100.00;101076.47;5031083;28;20456;-58
2021/09/28 06:55:39;;;;;;;0.40;0.40;;;;;;;13.45;100.00;101078.94;5018910;28;20977;-58
2021/09/28 06:58:06;;;;;;;0.30;0.20;;;;;;;13.50;100.00;101075.22;5029942;28;20824;-58
2021/09/28 07:00:35;;;;;;;0.30;0.20;;;;;;;13.50;100.00;101079.69;5019295;28;20483;-58
2021/09/28 07:03:03;;;;;;;0.30;0.20;;;;;;;13.43;100.00;101078.06;5020630;28;20965;-58
2021/09/28 07:05:32;;;;;;;0.30;0.20;;;;;;;13.41;100.00;101085.25;5026565;28;20479;-58
2021/09/28 07:07:59;;;;;;;0.30;0.20;;;;;;;13.59;100.00;101085.66;5028508;28;20447;-58
2021/09/28 07:10:25;;;;;;;0.30;0.20;;;;;;;13.63;100.00;101089.09;5023551;28;20509;-58
2021/09/28 07:12:52;;;;;;;0.30;0.20;;;;;;;13.66;100.00;101090.81;5021420;28;21008;-58
2021/09/28 07:15:19;;;;;;;0.30;0.30;;;;;;;13.50;100.00;101088.56;5026274;28;20496;-58
2021/09/28 07:17:46;;;;;;;0.30;0.20;;;;;;;13.87;100.00;101087.53;5028391;28;20486;-58
2021/09/28 07:20:13;;;;;;;0.30;0.20;;;;;;;14.24;100.00;101085.47;5023958;28;20454;-58
2021/09/28 07:22:40;;;;;;;0.40;0.30;;;;;;;14.29;100.00;101088.03;5021451;28;20503;-58
2021/09/28 07:25:07;;;;;;;0.30;0.20;;;;;;;14.22;100.00;101086.44;5025725;28;20472;-58
2021/09/28 07:27:51;;;;;;;0.30;0.20;;;;;;;14.12;100.00;101085.00;5028888;28;20946;-58
2021/09/28 07:30:17;;;;;;;0.30;0.20;;;;;;;14.05;100.00;101078.06;5026452;28;20501;-58
2021/09/28 07:32:44;;;;;;;0.30;0.20;;;;;;;14.09;100.00;101085.06;5022207;28;20448;-58
2021/09/28 07:35:10;;;;;;;0.30;0.20;;;;;;;14.14;100.00;101094.72;5022668;28;20473;-58
2021/09/28 07:37:38;;;;;;;0.30;0.20;;;;;;;14.24;100.00;101089.94;5027853;28;20452;-58
2021/09/28 07:40:05;;;;;;;0.30;0.20;;;;;;;14.32;100.00;101092.41;5026670;28;20450;-58
2021/09/28 07:42:32;;;;;;;0.30;0.20;;;;;;;14.24;100.00;101089.94;5021203;28;20463;-58
2021/09/28 07:45:00;;;;;;;0.30;0.20;;;;;;;14.32;100.00;101098.63;5022177;28;20448;-58
2021/09/28 07:47:27;;;;;;;0.30;0.20;;;;;;;14.18;100.00;101098.16;5027843;28;20500;-58
2021/09/28 07:49:53;;;;;;;0.30;0.30;;;;;;;14.20;100.00;101101.66;5021245;28;20449;-58
2021/09/28 07:52:25;;;;;;;0.30;0.20;;;;;;;14.73;100.00;101100.00;5008705;28;20452;-58
2021/09/28 07:54:52;;;;;;;0.30;0.20;;;;;;;14.50;100.00;101092.72;5020991;28;20507;-58
2021/09/28 07:57:18;;;;;;;0.30;0.20;;;;;;;14.67;100.00;101094.88;5033239;28;20549;-58
2021/09/28 07:59:45;;;;;;;0.30;0.20;;;;;;;14.58;100.00;101089.81;5020538;28;20483;-58
2021/09/28 08:02:12;;;;;;;0.30;0.20;;;;;;;14.74;100.00;101092.84;5023702;28;20517;-58
2021/09/28 08:04:40;;;;;;;0.30;0.20;;;;;;;14.76;100.00;101093.69;5020319;28;20472;-58
2021/09/28 08:07:07;;;;;;;0.30;0.20;;;;;;;14.81;100.00;101083.72;5026347;28;20468;-58
2021/09/28 08:09:34;;;;;;;0.40;0.20;;;;;;;14.82;100.00;101097.03;5026128;28;20455;-58
2021/09/28 08:12:01;;;;;;;0.30;0.20;;;;;;;15.14;100.00;101099.56;5022075;28;20456;-58
2021/09/28 08:14:28;;;;;;;0.40;0.20;;;;;;;15.11;100.00;101096.06;5020295;28;20866;-58
2021/09/28 08:16:54;;;;;;;0.30;0.20;;;;;;;15.08;100.00;101088.13;5025834;28;20496;-59
2021/09/28 08:19:21;;;;;;;0.40;0.20;;;;;;;15.13;100.00;101084.41;5027198;28;20451;-58
2021/09/28 08:21:47;;;;;;;0.50;0.50;;;;;;;15.23;100.00;101085.84;5021662;28;20447;-58
2021/09/28 08:24:14;;;;;;;0.40;0.33;;;;;;;15.20;100.00;101099.34;5020363;28;20548;-59
2021/09/28 08:29:25;;;;;;;0.30;0.20;;;;;;;15.38;100.00;101091.53;5027173;28;20506;-58
2021/09/28 08:31:52;;;;;;;0.40;0.20;;;;;;;15.50;100.00;101087.56;5018802;28;20493;-59
2021/09/28 08:34:19;;;;;;;0.40;0.20;;;;;;;15.38;100.00;101088.00;5026921;28;20499;-59
2021/09/28 08:36:48;;;;;;;0.40;0.20;;;;;;;15.66;100.00;101083.41;5022801;28;20491;-59
2021/09/28 08:39:15;;;;;;;0.33;0.20;;;;;;;15.81;100.00;101083.78;5021477;28;20847;-59
2021/09/28 08:41:45;;;;;;;0.40;0.20;;;;;;;15.77;100.00;101082.16;5012279;28;20458;-59
2021/09/28 08:44:13;;;;;;;0.30;0.20;;;;;;;15.97;99.82;101082.25;5024412;28;20880;-58
2021/09/28 08:46:40;;;;;;;0.40;0.20;;;;;;;15.67;100.00;101084.28;5024964;28;20463;-59
2021/09/28 08:49:07;;;;;;;0.40;0.20;;;;;;;15.56;100.00;101084.63;5020064;28;20509;-59
2021/09/28 08:51:34;;;;;;;0.40;0.20;;;;;;;15.85;99.84;101085.41;5027182;28;21011;-59
2021/09/28 08:54:00;;;;;;;0.30;0.20;;;;;;;15.80;99.45;101079.34;5007154;28;20452;-59
2021/09/28 08:56:28;;;;;;;0.40;0.20;;;;;;;15.74;100.00;101076.88;5018446;28;20542;-59
2021/09/28 08:59:00;;;;;;;0.37;0.20;;;;;;;16.02;99.82;101080.25;5006643;28;20517;-59
2021/09/28 09:01:28;;;;;;;0.40;0.20;;;;;;;15.73;100.00;101083.16;5029918;28;20477;-59
2021/09/28 09:03:56;;;;;;;0.40;0.20;;;;;;;16.00;100.00;101079.44;5021048;28;20452;-59
2021/09/28 09:06:34;;;;;;;0.40;0.20;;;;;;;16.56;99.24;101079.91;5019433;28;20500;-59
2021/09/28 09:09:02;;;;;;;0.40;0.20;;;;;;;16.30;98.33;101069.34;5022032;28;20858;-58
2021/09/28 09:11:45;;;;;;;0.30;0.20;;;;;;;15.88;99.70;101061.16;5026286;28;20448;-59
2021/09/28 09:14:19;;;;;;;0.40;0.30;;;;;;;16.14;99.64;101069.06;5025470;28;20452;-59
2021/09/28 09:16:48;;;;;;;0.40;0.20;;;;;;;16.04;99.78;101070.38;5006351;28;21015;-59
2021/09/28 09:19:22;;;;;;;0.30;0.20;;;;;;;16.36;99.75;101057.50;5019325;28;20465;-59
2021/09/28 09:21:50;;;;;;;0.40;0.20;;;;;;;16.41;98.77;101059.03;5024808;28;20449;-59
2021/09/28 09:24:54;;;;;;;0.40;0.20;;;;;;;16.33;97.58;101058.50;5025639;28;20444;-59
2021/09/28 09:27:33;;;;;;;0.40;0.20;;;;;;;16.46;97.86;101061.56;5025846;28;20486;-59
2021/09/28 09:30:11;;;;;;;0.40;0.20;;;;;;;16.89;94.65;101049.94;5021310;28;20454;-59
2021/09/28 09:32:55;;;;;;;0.40;0.20;;;;;;;17.05;93.60;101056.41;5019447;28;20520;-59
2021/09/28 09:35:22;;;;;;;0.40;0.20;;;;;;;16.77;95.84;101055.84;5019690;28;20521;-58
2021/09/28 09:37:49;;;;;;;0.40;0.20;;;;;;;17.12;93.65;101054.31;5024761;28;20920;-59
2021/09/28 09:40:31;;;;;;;0.40;0.20;;;;;;;16.63;94.61;101048.31;5025744;28;20465;-59
2021/09/28 09:42:58;;;;;;;0.40;0.20;;;;;;;17.44;93.03;101050.22;5024185;28;20426;-59
2021/09/28 09:45:28;;;;;;;0.40;0.20;;;;;;;17.58;91.14;101041.53;5025843;28;20511;-59
2021/09/28 09:47:54;;;;;;;0.30;0.20;;;;;;;17.89;91.79;101054.47;5021379;28;20964;-59
2021/09/28 09:50:26;;;;;;;0.40;0.20;;;;;;;17.74;91.84;101048.88;5019613;28;20502;-58
2021/09/28 09:53:00;;;;;;;0.63;0.63;;;;;;;17.44;90.95;101040.34;5032237;28;20497;-59
2021/09/28 09:55:28;;;;;;;0.40;0.20;;;;;;;17.25;92.04;101039.41;5019103;28;20473;-59
2021/09/28 09:57:55;;;;;;;0.40;0.20;;;;;;;17.58;90.49;101037.03;5031203;28;20495;-59
2021/09/28 10:00:22;;;;;;;0.40;0.30;;;;;;;18.20;90.07;101043.13;5018711;28;20448;-59
2021/09/28 10:02:49;;;;;;;0.40;0.20;;;;;;;18.07;89.37;101026.69;5019826;28;20453;-59
2021/09/28 10:05:17;;;;;;;2.40;0.97;;;;;;;18.56;85.71;101033.25;5025617;28;20476;-59
2021/09/28 10:07:48;;;;;;;0.40;0.20;;;;;;;18.06;87.83;101027.66;5025083;28;20426;-59
2021/09/28 10:10:18;;;;;;;0.40;0.20;;;;;;;18.07;87.82;101032.06;5025600;28;20807;-59
2021/09/28 10:12:46;;;;;;;0.40;0.20;;;;;;;17.71;89.30;101022.13;5025335;28;20451;-59
2021/09/28 10:15:17;;;;;;;0.40;0.20;;;;;;;17.66;89.67;101026.78;5019487;28;20592;-58
2021/09/28 10:17:45;;;;;;;0.40;0.40;;;;;;;17.70;91.60;101024.88;5018638;28;20842;-59
2021/09/28 10:20:15;;;;;;;0.40;0.20;;;;;;;17.85;89.54;101023.31;5024208;28;20479;-58
2021/09/28 10:22:52;;;;;;;0.40;0.30;;;;;;;17.77;88.93;101021.81;5025653;28;20497;-59
2021/09/28 10:25:19;;;;;;;0.40;0.20;;;;;;;17.40;89.04;101019.03;5022195;28;20972;-59
2021/09/28 10:27:54;;;;;;;0.40;0.20;;;;;;;17.84;88.63;101027.81;5018296;28;20448;-59
2021/09/28 10:30:33;;;;;;;0.40;0.20;;;;;;;17.99;86.55;101015.44;5023184;28;20447;-59
2021/09/28 10:33:05;;;;;;;0.40;0.20;;;;;;;17.91;85.39;101025.69;5018304;28;20940;-59
2021/09/28 10:35:35;;;;;;;0.40;0.20;;;;;;;17.95;85.13;101012.00;5018359;28;21028;-59
2021/09/28 10:38:05;;;;;;;0.40;0.20;;;;;;;18.16;82.92;101018.19;5026550;28;20492;-59
2021/09/28 10:40:32;;;;;;;0.40;0.20;;;;;;;17.92;84.78;101004.09;5028862;28;20451;-59
2021/09/28 10:43:03;;;;;;;0.40;0.20;;;;;;;17.94;84.31;101007.56;5023926;28;20474;-58
2021/09/28 10:45:29;;;;;;;0.40;0.20;;;;;;;18.17;85.56;101005.59;5022138;28;20877;-59
2021/09/28 10:48:18;;;;;;;0.40;0.20;;;;;;;18.27;85.88;101004.22;5026805;28;20507;-59
2021/09/28 10:50:46;;;;;;;0.40;0.20;;;;;;;18.07;85.43;100999.78;5028509;28;20444;-59
2021/09/28 10:53:18;;;;;;;0.50;0.40;;;;;;;17.95;85.37;101005.75;5035113;28;20426;-58
2021/09/28 10:56:01;;;;;;;0.40;0.20;;;;;;;18.04;86.05;101008.88;5023058;28;21065;-59
2021/09/28 10:58:29;;;;;;;0.40;0.30;;;;;;;18.61;84.69;101009.66;5030727;28;20448;-59
2021/09/28 11:00:56;;;;;;;0.40;0.20;;;;;;;18.73;81.69;101012.72;5024422;28;20860;-59
2021/09/28 11:03:41;;;;;;;0.40;0.20;;;;;;;19.00;79.98;101003.22;5021898;28;20448;-59
2021/09/28 11:06:09;;;;;;;0.40;0.20;;;;;;;18.90;80.52;100993.88;5022548;28;20472;-59
2021/09/28 11:08:36;;;;;;;0.40;0.20;;;;;;;18.80;81.14;100993.50;5028826;28;20854;-59
2021/09/28 11:11:05;;;;;;;0.40;0.20;;;;;;;18.96;81.38;100992.69;5029718;28;20455;-57
2021/09/28 11:13:38;;;;;;;0.40;0.20;;;;;;;19.71;79.54;100990.41;5008922;28;20955;-57
2021/09/28 11:16:11;;;;;;;0.40;0.20;;;;;;;19.52;75.91;100982.44;5021398;28;20484;-58
2021/09/28 11:18:53;;;;;;;0.40;0.20;;;;;;;19.73;73.45;100980.41;5026489;28;20965;-57
2021/09/28 11:21:20;;;;;;;0.40;0.20;;;;;;;19.45;75.11;100969.38;5028350;28;20476;-58
2021/09/28 11:23:50;;;;;;;0.40;0.20;;;;;;;19.48;73.75;100964.69;5025862;28;20426;-57
2021/09/28 11:26:17;;;;;;;0.40;0.30;;;;;;;19.57;74.56;100967.88;5021459;28;20463;-57